createdAt,value
2023-02-17T00:01:11.564Z,83.83
2023-02-17T00:05:08.598Z,83.82
2023-02-17T00:10:08.056Z,83.83
2023-02-17T00:15:08.087Z,83.81
2023-02-17T00:20:08.116Z,83.83
2023-02-17T00:25:08.182Z,83.8
2023-02-17T00:30:08.248Z,83.82
2023-02-17T00:35:08.237Z,83.82
2023-02-17T00:40:08.270Z,83.81
2023-02-17T00:45:08.612Z,83.82
2023-02-17T00:50:08.650Z,83.81
2023-02-17T00:55:08.709Z,83.82
2023-02-17T01:00:08.780Z,83.82
2023-02-17T01:05:08.846Z,83.84
2023-02-17T01:10:08.839Z,83.83
2023-02-17T01:15:08.871Z,83.85
2023-02-17T01:20:08.964Z,83.84
2023-02-17T01:25:07.964Z,83.83
2023-02-17T01:30:08.055Z,83.82
2023-02-17T01:35:08.162Z,83.84
2023-02-17T01:40:08.254Z,83.85
2023-02-17T01:45:08.327Z,83.85
2023-02-17T01:50:08.400Z,83.83
2023-02-17T01:55:08.425Z,83.83
2023-02-17T02:00:08.467Z,83.83
2023-02-17T02:05:08.609Z,83.82
2023-02-17T02:10:08.661Z,83.82
2023-02-17T02:15:08.712Z,83.81
2023-02-17T02:20:08.717Z,83.82
2023-02-17T02:25:08.722Z,83.82
2023-02-17T02:30:08.793Z,83.81
2023-02-17T02:35:08.845Z,83.83
2023-02-17T02:40:08.933Z,83.83
2023-02-17T02:45:07.968Z,83.83
2023-02-17T02:50:07.975Z,83.82
2023-02-17T02:55:08.017Z,83.82
2023-02-17T03:00:08.055Z,83.84
2023-02-17T03:05:08.086Z,83.83
2023-02-17T03:10:08.125Z,83.83
2023-02-17T03:15:08.121Z,83.83
2023-02-17T03:20:08.142Z,83.83
2023-02-17T03:25:08.179Z,83.84
2023-02-17T03:30:08.283Z,83.84
2023-02-17T03:35:08.351Z,83.83
2023-02-17T03:40:08.382Z,83.83
2023-02-17T03:45:08.442Z,83.84
2023-02-17T03:50:08.510Z,83.83
2023-02-17T03:55:08.549Z,83.82
2023-02-17T04:00:08.568Z,83.84
2023-02-17T04:05:08.578Z,83.84
2023-02-17T04:10:09.514Z,83.85
2023-02-17T04:15:08.712Z,83.85
2023-02-17T04:20:08.805Z,83.85
2023-02-17T04:25:08.851Z,83.85
2023-02-17T04:30:10.797Z,83.85
2023-02-17T04:35:08.011Z,83.85
2023-02-17T04:40:08.015Z,83.86
2023-02-17T04:45:08.050Z,83.84
2023-02-17T04:50:08.091Z,83.87
2023-02-17T04:55:08.089Z,83.86
2023-02-17T05:00:08.075Z,83.88
2023-02-17T05:05:02.430Z,83.88
2023-02-17T05:10:02.597Z,83.89
2023-02-17T05:15:02.736Z,83.87
2023-02-17T05:20:02.828Z,83.86
2023-02-17T05:25:02.943Z,83.89
2023-02-17T05:30:03.075Z,83.87
2023-02-17T05:35:02.254Z,83.87
2023-02-17T05:40:02.455Z,83.88
2023-02-17T05:45:02.910Z,83.9
2023-02-17T05:50:03.058Z,83.88
2023-02-17T05:55:02.289Z,83.86
2023-02-17T06:00:02.453Z,83.9
2023-02-17T06:05:02.743Z,83.9
2023-02-17T06:10:03.031Z,83.91
2023-02-17T06:15:02.270Z,83.92
2023-02-17T06:20:02.522Z,83.91
2023-02-17T06:25:02.899Z,83.89
2023-02-17T06:30:03.231Z,83.91
2023-02-17T06:35:02.542Z,83.86
2023-02-17T06:40:02.651Z,83.88
2023-02-17T06:45:03.043Z,83.9
2023-02-17T06:50:02.176Z,83.91
2023-02-17T06:55:02.378Z,83.92
2023-02-17T07:00:02.492Z,83.91
2023-02-17T07:05:02.703Z,83.95
2023-02-17T07:10:02.995Z,83.95
2023-02-17T07:15:02.303Z,83.94
2023-02-17T07:20:02.425Z,83.94
2023-02-17T07:25:02.775Z,83.96
2023-02-17T07:30:03.106Z,83.96
2023-02-17T07:35:02.419Z,83.93
2023-02-17T07:40:02.579Z,83.93
2023-02-17T07:45:02.778Z,83.94
2023-02-17T07:50:02.983Z,83.95
2023-02-17T07:55:02.220Z,83.95
2023-02-17T08:00:02.396Z,83.95
2023-02-17T08:05:02.639Z,83.93
2023-02-17T08:10:02.973Z,83.92
2023-02-17T08:15:02.263Z,83.94
2023-02-17T08:20:08.636Z,83.96
2023-02-17T08:25:02.336Z,83.93
2023-02-17T08:30:02.573Z,83.92
2023-02-17T08:35:02.712Z,83.94
2023-02-17T08:40:02.981Z,83.9
2023-02-17T08:45:02.274Z,83.92
2023-02-17T08:50:02.625Z,83.92
2023-02-17T08:55:02.725Z,83.92
2023-02-17T09:00:04.850Z,83.92
2023-02-17T09:05:02.661Z,83.91
2023-02-17T09:10:02.979Z,83.89
2023-02-17T09:15:02.222Z,83.9
2023-02-17T09:20:02.448Z,83.88
2023-02-17T09:25:02.704Z,83.89
2023-02-17T09:30:03.079Z,83.9
2023-02-17T09:35:02.339Z,83.87
2023-02-17T09:40:02.415Z,83.86
2023-02-17T09:45:02.624Z,83.86
2023-02-17T09:50:02.860Z,83.85
2023-02-17T09:55:03.114Z,83.86
2023-02-17T10:00:02.305Z,83.83
2023-02-17T10:05:02.578Z,83.85
2023-02-17T10:10:03.004Z,83.82
2023-02-17T10:15:02.223Z,83.84
2023-02-17T10:20:10.409Z,83.81
2023-02-17T10:25:12.558Z,83.81
2023-02-17T10:30:02.737Z,83.79
2023-02-17T10:35:03.054Z,83.77
2023-02-17T10:40:02.227Z,83.77
2023-02-17T10:45:02.484Z,83.77
2023-02-17T10:50:02.745Z,83.77
2023-02-17T10:55:06.508Z,83.76
2023-02-17T11:00:02.737Z,83.77
2023-02-17T11:05:02.999Z,83.73
2023-02-17T11:10:02.237Z,83.73
2023-02-17T11:15:02.400Z,83.66
2023-02-17T11:20:02.714Z,83.66
2023-02-17T11:25:03.055Z,83.64
2023-02-17T11:30:02.272Z,83.65
2023-02-17T11:35:02.480Z,83.63
2023-02-17T11:40:02.611Z,83.62
2023-02-17T11:45:02.862Z,83.62
2023-02-17T11:50:02.994Z,83.63
2023-02-17T11:55:02.135Z,83.62
2023-02-17T12:00:02.378Z,83.6
2023-02-17T12:05:02.582Z,83.58
2023-02-17T12:10:02.803Z,83.57
2023-02-17T12:15:12.989Z,83.56
2023-02-17T12:20:02.186Z,83.55
2023-02-17T12:25:02.280Z,83.56
2023-02-17T12:30:02.510Z,83.55
2023-02-17T12:35:02.735Z,83.52
2023-02-17T12:40:03.048Z,83.55
2023-02-17T12:45:12.176Z,83.56
2023-02-17T12:50:02.445Z,83.58
2023-02-17T12:55:02.607Z,83.58
2023-02-17T13:00:02.745Z,83.58
2023-02-17T13:05:02.879Z,83.57
2023-02-17T13:10:03.004Z,83.57
2023-02-17T13:15:02.230Z,83.64
2023-02-17T13:20:02.461Z,83.62
2023-02-17T13:25:02.692Z,83.59
2023-02-17T13:30:03.037Z,83.59
2023-02-17T13:35:02.292Z,83.6
2023-02-17T13:40:02.364Z,83.61
2023-02-17T13:45:02.490Z,83.59
2023-02-17T13:50:02.630Z,83.61
2023-02-17T13:55:02.757Z,83.61
2023-02-17T14:00:12.866Z,83.61
2023-02-17T14:05:03.191Z,83.61
2023-02-17T14:10:02.394Z,83.65
2023-02-17T14:15:02.643Z,83.66
2023-02-17T14:20:02.857Z,83.67
2023-02-17T14:25:03.076Z,83.67
2023-02-17T14:30:05.148Z,83.7
2023-02-17T14:35:02.832Z,83.73
2023-02-17T14:40:03.096Z,83.73
2023-02-17T14:45:02.310Z,83.75
2023-02-17T14:50:02.493Z,83.86
2023-02-17T14:55:02.729Z,83.82
2023-02-17T15:00:02.925Z,83.83
2023-02-17T15:05:03.246Z,83.82
2023-02-17T15:10:02.417Z,83.83
2023-02-17T15:15:02.585Z,83.83
2023-02-17T15:20:02.760Z,83.8
2023-02-17T15:25:02.968Z,83.84
2023-02-17T15:30:02.205Z,83.83
2023-02-17T15:35:02.369Z,83.85
2023-02-17T15:40:02.662Z,83.82
2023-02-17T15:45:02.766Z,83.83
2023-02-17T15:50:02.968Z,83.84
2023-02-17T15:55:02.182Z,83.83
2023-02-17T16:00:02.273Z,83.83
2023-02-17T16:05:02.417Z,83.86
2023-02-17T16:10:02.703Z,83.85
2023-02-17T16:15:03.030Z,83.84
2023-02-17T16:20:02.294Z,83.85
2023-02-17T16:25:02.417Z,83.86
2023-02-17T16:30:12.671Z,83.83
2023-02-17T16:35:02.873Z,83.85
2023-02-17T16:40:03.110Z,83.82
2023-02-17T16:45:02.270Z,83.84
2023-02-17T16:50:02.530Z,83.84
2023-02-17T16:55:02.695Z,83.84
2023-02-17T17:00:02.840Z,83.84
2023-02-17T17:05:03.056Z,83.82
2023-02-17T17:10:15.718Z,83.83
2023-02-17T17:15:03.154Z,83.82
2023-02-17T17:20:02.352Z,83.84
2023-02-17T17:25:02.554Z,83.81
2023-02-17T17:30:02.765Z,83.83
2023-02-17T17:35:03.002Z,83.83
2023-02-17T17:40:02.263Z,83.85
2023-02-17T17:45:02.480Z,83.84
2023-02-17T17:50:02.606Z,83.84
2023-02-17T17:55:02.895Z,83.85
2023-02-17T18:00:03.105Z,83.86
2023-02-17T18:05:02.516Z,83.86
2023-02-17T18:10:02.788Z,83.9
2023-02-17T18:15:03.078Z,83.89
2023-02-17T18:20:02.376Z,83.92
2023-02-17T18:25:02.639Z,83.88
2023-02-17T18:30:02.855Z,83.9
2023-02-17T18:35:03.163Z,83.91
2023-02-17T18:40:02.301Z,83.91
2023-02-17T18:45:02.425Z,83.92
2023-02-17T18:50:02.583Z,83.92
2023-02-17T18:55:02.697Z,83.91
2023-02-17T19:00:02.839Z,83.91
2023-02-17T19:05:03.002Z,83.92
2023-02-17T19:10:02.182Z,83.92
2023-02-17T19:15:02.500Z,83.91
2023-02-17T19:20:02.736Z,83.92
2023-02-17T19:25:02.783Z,83.91
2023-02-17T19:30:02.988Z,83.92
2023-02-17T19:35:02.180Z,83.91
2023-02-17T19:40:02.266Z,83.94
2023-02-17T19:45:02.579Z,83.94
2023-02-17T19:50:02.745Z,83.94
2023-02-17T19:55:03.083Z,83.95
2023-02-17T20:00:02.266Z,83.96
2023-02-17T20:05:02.398Z,83.98
2023-02-17T20:10:02.650Z,83.99
2023-02-17T20:15:02.807Z,84.02
2023-02-17T20:20:03.077Z,84.03
2023-02-17T20:25:02.196Z,84.06
2023-02-17T20:30:02.550Z,84.05
2023-02-17T20:35:02.964Z,84.07
2023-02-17T20:40:02.135Z,84.09
2023-02-17T20:45:02.865Z,84.1
2023-02-17T20:50:07.765Z,84.1
2023-02-17T20:55:02.966Z,84.11
2023-02-17T21:00:02.129Z,84.13
2023-02-17T21:05:02.282Z,84.13
2023-02-17T21:10:02.416Z,84.11
2023-02-17T21:15:02.566Z,84.14
2023-02-17T21:20:02.837Z,84.16
2023-02-17T21:25:02.999Z,84.16
2023-02-17T21:30:02.293Z,84.18
2023-02-17T21:35:02.433Z,84.18
2023-02-17T21:40:02.602Z,84.2
2023-02-17T21:45:02.780Z,84.2
2023-02-17T21:50:03.058Z,84.21
2023-02-17T21:55:02.228Z,84.21
2023-02-17T22:00:02.318Z,84.22
2023-02-17T22:05:02.461Z,84.21
2023-02-17T22:10:02.707Z,84.22
2023-02-17T22:15:02.821Z,84.25
2023-02-17T22:20:02.958Z,84.22
2023-02-17T22:25:02.078Z,84.25
2023-02-17T22:30:02.425Z,84.26
2023-02-17T22:35:02.763Z,84.25
2023-02-17T22:40:02.973Z,84.27
2023-02-17T22:45:02.169Z,84.26
2023-02-17T22:50:02.388Z,84.27
2023-02-17T22:55:02.582Z,84.3
2023-02-17T23:00:02.860Z,84.28
2023-02-17T23:05:15.825Z,84.29
2023-02-17T23:10:08.848Z,84.29
2023-02-17T23:15:08.858Z,84.3
2023-02-17T23:20:08.896Z,84.3
2023-02-17T23:25:09.026Z,84.3
2023-02-17T23:30:08.051Z,84.3
2023-02-17T23:35:08.055Z,84.29
2023-02-17T23:40:08.116Z,84.28
2023-02-17T23:45:08.133Z,84.29
2023-02-17T23:50:08.156Z,84.3
2023-02-17T23:55:08.214Z,84.3
